Time;durP1;ratioP1;P1;durP2;ratioP2;P2;SDS_P1;SDS_P2;PMS_P1;PMS_P2;Temp;Humidity;BMP_temperature;BMP_pressure;BME280_temperature;BME280_humidity;BME280_pressure;Samples;Min_cycle;Max_cycle;Signal;HPM_P1;HPM_P2
2023/06/16 00:00:43;;;;;;;4.30;1.30;;;14.50;99.90;;;;;;5081750;28;20199;-84
2023/06/16 00:03:15;;;;;;;10.20;1.70;;;14.60;99.90;;;;;;5083077;28;20215;-84
2023/06/16 00:05:48;;;;;;;4.07;1.50;;;14.70;99.90;;;;;;5079329;28;20233;-84
2023/06/16 00:08:21;;;;;;;6.30;1.58;;;14.80;99.90;;;;;;5075640;28;20192;-85
2023/06/16 00:10:52;;;;;;;4.15;1.52;;;14.90;99.90;;;;;;5076348;28;20230;-85
2023/06/16 00:13:23;;;;;;;3.70;1.50;;;14.90;99.90;;;;;;5078186;28;20214;-85
2023/06/16 00:15:54;;;;;;;5.35;1.38;;;14.90;99.90;;;;;;5090220;28;20674;-88
2023/06/16 00:18:27;;;;;;;2.67;1.17;;;15.10;99.90;;;;;;5076587;28;20679;-82
2023/06/16 00:21:02;;;;;;;3.75;1.10;;;15.10;99.90;;;;;;5094487;28;20202;-86
2023/06/16 00:23:33;;;;;;;2.80;1.20;;;15.20;99.90;;;;;;5076203;28;20230;-85
2023/06/16 00:26:06;;;;;;;4.78;1.35;;;15.30;99.90;;;;;;5076097;28;20184;-85
2023/06/16 00:28:38;;;;;;;4.55;1.15;;;15.40;99.90;;;;;;5077148;28;20608;-87
2023/06/16 00:31:10;;;;;;;4.47;1.17;;;15.50;99.90;;;;;;5075488;28;20196;-87
2023/06/16 00:33:42;;;;;;;2.47;1.15;;;15.50;99.90;;;;;;5072377;28;20192;-87
2023/06/16 00:36:17;;;;;;;3.85;1.17;;;15.60;99.90;;;;;;5075145;28;20681;-86
2023/06/16 00:38:49;;;;;;;2.90;1.13;;;15.60;99.90;;;;;;5064933;28;20192;-86
2023/06/16 00:41:20;;;;;;;2.10;1.33;;;15.70;99.90;;;;;;5071495;28;20204;-85
2023/06/16 00:43:52;;;;;;;4.25;0.98;;;15.80;99.90;;;;;;5068653;28;20196;-84
2023/06/16 00:46:29;;;;;;;3.70;1.40;;;15.90;99.90;;;;;;5075001;28;20200;-85
2023/06/16 00:49:02;;;;;;;3.80;1.48;;;16.00;99.90;;;;;;5074198;28;20194;-87
2023/06/16 00:51:37;;;;;;;3.88;1.20;;;16.10;99.90;;;;;;5075860;28;20193;-87
2023/06/16 00:54:11;;;;;;;4.40;1.10;;;16.10;99.90;;;;;;5065271;28;20196;-86
2023/06/16 00:56:43;;;;;;;3.03;1.08;;;16.20;99.90;;;;;;5073801;28;20654;-88
2023/06/16 00:59:14;;;;;;;3.90;1.35;;;16.30;99.90;;;;;;5070862;28;20265;-87
2023/06/16 01:01:48;;;;;;;6.78;1.70;;;16.40;99.90;;;;;;5064108;28;20299;-88
2023/06/16 01:04:20;;;;;;;4.78;1.60;;;16.40;99.90;;;;;;5075191;28;20248;-87
2023/06/16 01:07:00;;;;;;;3.35;1.45;;;16.30;99.90;;;;;;5067191;28;20189;-86
2023/06/16 01:09:45;;;;;;;6.40;1.98;;;16.40;99.90;;;;;;5074672;28;20279;-87
2023/06/16 01:12:27;;;;;;;3.58;1.40;;;16.50;99.90;;;;;;5070005;28;20232;-87
2023/06/16 01:15:06;;;;;;;3.83;1.73;;;16.70;99.90;;;;;;5073424;28;20912;-86
2023/06/16 01:17:44;;;;;;;4.85;1.38;;;16.80;99.90;;;;;;5073923;28;20196;-88
2023/06/16 01:20:21;;;;;;;5.03;1.60;;;16.70;99.90;;;;;;5061325;28;20267;-87
2023/06/16 01:23:09;;;;;;;4.60;1.83;;;16.80;99.90;;;;;;5061377;28;20238;-87
2023/06/16 01:25:43;;;;;;;4.70;1.33;;;16.80;99.90;;;;;;5075287;28;20184;-88
2023/06/16 01:28:21;;;;;;;3.40;1.48;;;16.80;99.90;;;;;;5071421;28;20302;-87
2023/06/16 01:30:54;;;;;;;3.67;1.58;;;16.90;99.90;;;;;;5073308;28;20251;-87
2023/06/16 01:33:28;;;;;;;6.15;1.77;;;17.10;99.90;;;;;;5076030;28;20663;-86
2023/06/16 01:36:01;;;;;;;4.90;1.73;;;17.10;99.90;;;;;;5068456;28;20198;-86
2023/06/16 01:38:36;;;;;;;1.40;1.00;;;17.10;99.90;;;;;;5071234;28;20214;-87
2023/06/16 01:41:09;;;;;;;2.88;1.17;;;17.20;99.90;;;;;;5074640;28;20207;-87
2023/06/16 01:43:43;;;;;;;3.95;1.20;;;17.20;99.90;;;;;;5075126;28;20679;-87
2023/06/16 01:46:15;;;;;;;3.05;1.10;;;17.40;99.90;;;;;;5073535;28;20222;-86
2023/06/16 01:48:47;;;;;;;3.63;1.17;;;17.50;99.90;;;;;;5074441;28;20199;-86
2023/06/16 01:51:20;;;;;;;3.17;1.30;;;17.60;99.90;;;;;;5074259;28;20199;-85
2023/06/16 01:53:52;;;;;;;4.10;1.40;;;17.60;99.90;;;;;;5074999;28;20199;-86
2023/06/16 01:56:26;;;;;;;4.45;0.93;;;17.80;99.90;;;;;;5078075;28;20195;-86
2023/06/16 01:58:57;;;;;;;3.22;1.00;;;17.80;99.90;;;;;;5080348;28;20195;-85
2023/06/16 02:01:31;;;;;;;2.88;1.30;;;17.90;99.90;;;;;;5085992;28;20762;-86
2023/06/16 02:04:10;;;;;;;3.15;1.13;;;17.90;99.90;;;;;;5089769;28;20607;-86
2023/06/16 02:06:45;;;;;;;3.92;1.13;;;17.90;99.90;;;;;;5083709;28;20269;-86
2023/06/16 02:09:18;;;;;;;1.67;0.73;;;18.00;99.90;;;;;;5075392;28;20192;-87
2023/06/16 02:11:55;;;;;;;3.22;1.08;;;18.00;99.90;;;;;;5074762;28;20224;-86
2023/06/16 02:14:29;;;;;;;4.15;1.05;;;18.10;99.90;;;;;;5057618;28;20255;-85
2023/06/16 02:17:02;;;;;;;3.95;0.98;;;18.20;99.90;;;;;;5074884;28;20199;-86
2023/06/16 02:19:33;;;;;;;2.88;0.85;;;18.20;99.90;;;;;;5074369;28;20228;-86
2023/06/16 02:22:07;;;;;;;4.47;1.13;;;18.20;99.90;;;;;;5054513;28;20211;-84
2023/06/16 02:24:38;;;;;;;3.05;0.90;;;18.10;99.90;;;;;;5074415;28;20211;-85
2023/06/16 02:27:12;;;;;;;5.13;1.52;;;18.20;99.90;;;;;;5073555;28;20659;-83
2023/06/16 02:29:43;;;;;;;3.47;1.30;;;18.40;99.90;;;;;;5056564;28;20197;-86
2023/06/16 02:32:14;;;;;;;3.33;1.77;;;18.50;99.90;;;;;;5067862;28;20204;-86
2023/06/16 02:34:46;;;;;;;2.75;1.08;;;18.50;99.90;;;;;;5074020;28;20207;-85
2023/06/16 02:37:17;;;;;;;3.30;0.80;;;18.60;99.90;;;;;;5073990;28;20279;-86
2023/06/16 02:39:48;;;;;;;1.80;0.88;;;18.70;99.90;;;;;;5072349;28;20199;-86
2023/06/16 02:42:23;;;;;;;3.05;1.10;;;18.60;99.90;;;;;;5054272;28;20220;-85
2023/06/16 02:44:54;;;;;;;4.38;1.15;;;18.60;99.90;;;;;;5072605;28;20199;-85
2023/06/16 02:47:25;;;;;;;3.90;1.10;;;18.70;99.90;;;;;;5072236;28;20203;-85
2023/06/16 02:49:59;;;;;;;2.72;1.00;;;18.70;99.90;;;;;;5077294;28;20196;-86
2023/06/16 02:52:30;;;;;;;4.97;1.20;;;18.70;99.90;;;;;;5073903;28;20199;-86
2023/06/16 02:55:03;;;;;;;4.68;0.90;;;18.70;99.90;;;;;;5073102;28;20709;-88
2023/06/16 02:57:41;;;;;;;3.90;1.15;;;18.80;99.90;;;;;;5074241;28;20227;-87
2023/06/16 03:00:13;;;;;;;3.22;1.10;;;18.70;99.90;;;;;;5073750;28;20195;-87
2023/06/16 03:02:45;;;;;;;2.13;1.10;;;18.80;99.90;;;;;;5075988;28;20234;-87
2023/06/16 03:05:17;;;;;;;3.38;1.20;;;18.80;99.90;;;;;;5073689;28;20223;-86
2023/06/16 03:07:50;;;;;;;2.40;1.25;;;18.80;99.90;;;;;;5081976;28;20196;-85
2023/06/16 03:10:22;;;;;;;3.50;1.23;;;18.80;99.90;;;;;;5074802;28;20287;-86
2023/06/16 03:12:57;;;;;;;4.13;1.00;;;18.80;99.90;;;;;;5080085;28;20242;-86
2023/06/16 03:15:30;;;;;;;2.08;1.40;;;18.90;99.90;;;;;;5073688;28;20203;-87
2023/06/16 03:18:02;;;;;;;4.05;2.42;;;18.90;99.90;;;;;;5073738;28;20200;-86
2023/06/16 03:20:34;;;;;;;4.95;1.15;;;18.90;99.90;;;;;;5073732;28;20287;-87
2023/06/16 03:23:06;;;;;;;2.75;1.13;;;19.10;99.90;;;;;;5073012;28;20266;-87
2023/06/16 03:25:39;;;;;;;1.55;1.05;;;19.10;99.90;;;;;;5074799;28;20184;-87
2023/06/16 03:28:12;;;;;;;3.67;1.10;;;19.10;99.90;;;;;;5076513;28;20196;-85
2023/06/16 03:30:47;;;;;;;2.92;1.10;;;19.20;99.90;;;;;;5078735;28;20200;-83
2023/06/16 03:33:18;;;;;;;2.58;1.10;;;19.20;99.90;;;;;;5079333;28;20195;-86
2023/06/16 03:35:52;;;;;;;2.95;1.10;;;19.20;99.90;;;;;;5075212;28;20227;-87
2023/06/16 03:38:24;;;;;;;4.05;1.20;;;19.20;99.90;;;;;;5074867;28;20281;-87
2023/06/16 03:40:55;;;;;;;3.60;1.10;;;19.20;99.90;;;;;;5075734;28;20682;-85
2023/06/16 03:43:31;;;;;;;3.13;1.10;;;19.10;99.90;;;;;;5060414;28;20296;-86
2023/06/16 03:46:02;;;;;;;2.78;1.05;;;19.10;99.90;;;;;;5055817;28;20198;-86
2023/06/16 03:48:33;;;;;;;2.85;1.00;;;19.10;99.90;;;;;;5067421;28;20214;-86
2023/06/16 03:51:05;;;;;;;3.60;0.95;;;19.20;99.90;;;;;;5075446;28;20279;-87
2023/06/16 03:53:36;;;;;;;1.35;0.85;;;19.20;99.90;;;;;;5073149;28;20235;-86
2023/06/16 03:56:09;;;;;;;3.15;1.30;;;19.10;99.90;;;;;;5073897;28;20695;-86
2023/06/16 03:58:48;;;;;;;3.00;0.73;;;19.10;99.90;;;;;;5074155;28;20192;-86
2023/06/16 04:01:22;;;;;;;4.35;0.88;;;19.10;99.90;;;;;;5073217;28;20206;-86
2023/06/16 04:03:55;;;;;;;2.63;0.80;;;19.20;99.90;;;;;;5073172;28;20215;-87
2023/06/16 04:06:27;;;;;;;2.65;0.90;;;19.30;99.90;;;;;;5072155;28;20210;-85
2023/06/16 04:08:59;;;;;;;3.17;0.90;;;19.20;99.90;;;;;;5073284;28;20192;-87
2023/06/16 04:11:32;;;;;;;5.05;1.23;;;19.30;99.90;;;;;;5073216;28;20255;-86
2023/06/16 04:14:05;;;;;;;4.35;1.20;;;19.20;99.90;;;;;;5073041;28;20225;-87
2023/06/16 04:16:37;;;;;;;3.13;1.13;;;19.20;99.90;;;;;;5079263;28;20578;-87
2023/06/16 04:19:09;;;;;;;1.77;1.20;;;19.20;99.90;;;;;;5073752;28;20210;-86
2023/06/16 04:21:41;;;;;;;2.95;0.93;;;19.20;99.90;;;;;;5073955;28;20279;-87
2023/06/16 04:24:12;;;;;;;1.48;0.90;;;19.10;99.90;;;;;;5072482;28;20228;-86
2023/06/16 04:26:43;;;;;;;3.05;1.00;;;19.10;99.90;;;;;;5074016;28;20283;-86
2023/06/16 04:29:20;;;;;;;4.95;1.25;;;19.10;99.90;;;;;;5073030;28;20204;-86
2023/06/16 04:31:53;;;;;;;1.58;0.80;;;19.00;99.90;;;;;;5073212;28;20253;-86
2023/06/16 04:34:24;;;;;;;1.15;0.70;;;19.00;99.90;;;;;;5073026;28;20204;-86
2023/06/16 04:36:58;;;;;;;2.38;0.88;;;19.00;99.90;;;;;;5072903;28;20714;-86
2023/06/16 04:39:31;;;;;;;2.63;0.93;;;19.00;99.90;;;;;;5072662;28;20200;-87
2023/06/16 04:42:02;;;;;;;2.42;0.73;;;19.00;99.90;;;;;;5073143;28;20200;-86
2023/06/16 04:44:41;;;;;;;3.22;0.98;;;19.00;99.90;;;;;;5072553;28;20219;-86
2023/06/16 04:47:13;;;;;;;1.60;0.70;;;19.00;99.90;;;;;;5077920;28;20188;-87
2023/06/16 04:49:44;;;;;;;1.98;0.63;;;19.00;99.90;;;;;;5084400;28;20285;-86
2023/06/16 04:52:16;;;;;;;2.10;0.80;;;19.00;99.90;;;;;;5078442;28;20207;-87
2023/06/16 04:54:49;;;;;;;2.03;0.95;;;19.00;99.90;;;;;;5075399;28;20202;-86
2023/06/16 04:57:20;;;;;;;4.68;1.23;;;18.90;99.90;;;;;;5075551;28;20195;-86
2023/06/16 04:59:59;;;;;;;4.90;1.38;;;19.00;99.90;;;;;;5076874;28;20223;-86
2023/06/16 05:02:32;;;;;;;4.68;1.20;;;19.00;99.90;;;;;;5084385;28;20723;-86
2023/06/16 05:05:12;;;;;;;3.88;1.20;;;18.90;99.90;;;;;;5080073;28;20227;-86
2023/06/16 05:17:53;;;;;;;4.05;1.55;;;18.70;99.90;;;;;;5080062;28;20202;-85
2023/06/16 05:20:24;;;;;;;2.78;1.35;;;18.60;99.90;;;;;;5077109;28;20218;-85
2023/06/16 05:22:59;;;;;;;3.22;1.50;;;18.60;99.90;;;;;;5078773;28;20223;-86
2023/06/16 05:25:30;;;;;;;4.95;1.50;;;18.50;99.90;;;;;;5094883;28;20306;-86
2023/06/16 05:28:03;;;;;;;4.30;1.45;;;18.40;99.90;;;;;;5098920;28;20604;-86
2023/06/16 05:30:35;;;;;;;4.03;1.63;;;18.40;99.90;;;;;;5088696;28;20253;-87
2023/06/16 05:33:09;;;;;;;3.00;1.40;;;18.40;99.90;;;;;;5071283;28;20211;-86
2023/06/16 05:35:43;;;;;;;3.28;1.33;;;18.40;99.90;;;;;;5072544;28;20205;-87
2023/06/16 05:38:14;;;;;;;3.67;1.70;;;18.40;99.90;;;;;;5075720;28;20196;-86
2023/06/16 05:40:47;;;;;;;5.57;1.40;;;18.40;99.90;;;;;;5068946;28;20203;-86
2023/06/16 05:43:22;;;;;;;2.90;1.52;;;18.40;99.90;;;;;;5070410;28;20219;-86
2023/06/16 05:45:55;;;;;;;4.05;1.50;;;18.40;99.90;;;;;;5061100;28;20203;-85
2023/06/16 05:48:28;;;;;;;3.10;1.38;;;18.30;99.90;;;;;;5073281;28;20208;-86
2023/06/16 05:51:02;;;;;;;2.80;1.20;;;18.40;99.90;;;;;;5070902;28;20271;-86
2023/06/16 05:53:33;;;;;;;2.58;1.10;;;18.30;99.90;;;;;;5072434;28;20198;-86
2023/06/16 05:56:04;;;;;;;4.13;1.10;;;18.30;99.90;;;;;;5055635;28;20221;-86
2023/06/16 05:58:36;;;;;;;2.83;1.20;;;18.30;99.90;;;;;;5058374;28;20201;-87
2023/06/16 06:01:08;;;;;;;2.15;1.05;;;18.30;99.90;;;;;;5050809;28;20188;-86
2023/06/16 06:03:47;;;;;;;4.45;1.23;;;18.30;99.90;;;;;;5077390;28;20227;-87
2023/06/16 06:06:21;;;;;;;7.30;1.15;;;18.30;99.90;;;;;;5042080;28;20278;-86
2023/06/16 06:08:52;;;;;;;2.58;0.88;;;18.30;99.90;;;;;;5063273;28;20188;-86
2023/06/16 06:11:24;;;;;;;3.50;0.90;;;18.30;99.90;;;;;;5063701;28;20284;-87
2023/06/16 06:13:55;;;;;;;4.10;1.13;;;18.30;99.90;;;;;;5073970;28;20655;-86
2023/06/16 06:16:27;;;;;;;2.95;1.10;;;18.30;99.90;;;;;;5057136;28;20192;-86
2023/06/16 06:19:02;;;;;;;3.53;0.93;;;18.30;99.90;;;;;;5063811;28;20200;-84
2023/06/16 06:21:33;;;;;;;4.53;1.02;;;18.20;99.90;;;;;;5063087;28;20933;-87
2023/06/16 06:24:05;;;;;;;2.53;0.80;;;18.20;99.90;;;;;;5056269;28;20591;-87
2023/06/16 06:26:38;;;;;;;8.52;0.98;;;18.20;99.90;;;;;;5073624;28;20231;-86
2023/06/16 06:29:09;;;;;;;3.65;1.55;;;18.10;99.90;;;;;;5066759;28;20203;-87
2023/06/16 06:31:40;;;;;;;3.58;0.80;;;18.10;99.90;;;;;;5066321;28;20188;-88
2023/06/16 06:34:15;;;;;;;3.60;1.05;;;18.00;99.90;;;;;;5075386;28;20191;-87
2023/06/16 06:36:48;;;;;;;2.75;0.90;;;17.90;99.90;;;;;;5061128;28;20210;-88
2023/06/16 06:39:20;;;;;;;2.80;0.82;;;17.90;99.90;;;;;;5075224;28;20196;-87
2023/06/16 06:41:54;;;;;;;3.85;1.02;;;17.80;99.90;;;;;;5087340;28;20218;-87
2023/06/16 06:44:25;;;;;;;3.65;1.10;;;17.70;99.90;;;;;;5062007;28;20217;-87
2023/06/16 06:46:57;;;;;;;3.10;1.30;;;17.70;99.90;;;;;;5060373;28;20189;-87
2023/06/16 06:49:33;;;;;;;2.75;1.10;;;17.70;99.90;;;;;;5074181;28;20238;-88
2023/06/16 06:52:04;;;;;;;1.90;0.93;;;17.60;99.90;;;;;;5074403;28;20191;-87
2023/06/16 06:54:36;;;;;;;4.53;1.10;;;17.50;99.90;;;;;;5076887;28;20203;-87
2023/06/16 06:57:07;;;;;;;1.88;1.00;;;17.40;99.90;;;;;;5072629;28;20215;-86
2023/06/16 06:59:38;;;;;;;1.70;0.88;;;17.40;99.90;;;;;;5068431;28;20668;-87
2023/06/16 07:02:12;;;;;;;2.47;0.90;;;17.40;99.90;;;;;;5055262;28;20249;-87
2023/06/16 07:04:45;;;;;;;4.57;1.15;;;17.30;99.90;;;;;;5061210;28;20224;-86
2023/06/16 07:07:16;;;;;;;2.47;1.08;;;17.20;99.90;;;;;;5070667;28;20211;-86
2023/06/16 07:09:47;;;;;;;4.20;1.10;;;17.20;99.90;;;;;;5072240;28;20690;-87
2023/06/16 07:12:19;;;;;;;3.17;1.00;;;17.20;99.90;;;;;;5071398;28;20232;-87
2023/06/16 07:14:53;;;;;;;3.08;1.17;;;17.10;99.90;;;;;;5079094;28;20244;-89
2023/06/16 07:17:26;;;;;;;2.42;0.90;;;17.10;99.90;;;;;;5068682;28;20227;-87
2023/06/16 07:20:03;;;;;;;3.88;1.30;;;17.00;99.90;;;;;;5058833;28;20207;-87
2023/06/16 07:22:35;;;;;;;5.78;1.20;;;17.00;99.90;;;;;;5056200;28;20238;-88
2023/06/16 07:25:08;;;;;;;1.63;1.00;;;17.00;99.90;;;;;;5071396;28;20228;-86
2023/06/16 07:27:40;;;;;;;2.45;0.90;;;17.00;99.90;;;;;;5068234;28;20210;-88
2023/06/16 07:30:13;;;;;;;2.20;1.02;;;16.90;99.90;;;;;;5070517;28;20200;-87
2023/06/16 07:32:45;;;;;;;2.25;1.17;;;16.90;99.90;;;;;;5065049;28;20188;-88
2023/06/16 07:35:21;;;;;;;3.08;1.08;;;16.90;99.90;;;;;;5064952;28;20208;-88
2023/06/16 07:37:54;;;;;;;2.65;0.88;;;16.80;99.90;;;;;;5071059;28;20263;-88
2023/06/16 07:40:27;;;;;;;3.42;1.30;;;16.80;99.90;;;;;;5075572;28;20200;-88
2023/06/16 07:42:58;;;;;;;2.47;1.10;;;16.80;99.90;;;;;;5062060;28;20238;-88
2023/06/16 07:45:31;;;;;;;3.15;1.45;;;16.80;99.90;;;;;;5058651;28;20227;-87
2023/06/16 07:48:03;;;;;;;2.95;1.30;;;16.80;99.90;;;;;;5073262;28;20275;-87
2023/06/16 07:50:47;;;;;;;4.97;1.42;;;16.70;99.90;;;;;;5068777;28;20200;-88
2023/06/16 07:53:21;;;;;;;2.10;1.35;;;16.70;99.90;;;;;;5077074;28;20241;-88
2023/06/16 07:55:53;;;;;;;2.45;1.35;;;16.70;99.90;;;;;;5073677;28;20207;-89
2023/06/16 07:58:27;;;;;;;4.10;2.10;;;16.70;99.90;;;;;;5069488;28;20192;-89
2023/06/16 08:00:59;;;;;;;3.58;2.30;;;16.70;99.90;;;;;;5065851;28;20291;-88
2023/06/16 08:03:31;;;;;;;7.35;2.35;;;16.60;99.90;;;;;;5057379;28;20196;-88
2023/06/16 08:06:07;;;;;;;5.53;1.80;;;16.60;99.90;;;;;;5075766;28;20194;-88
2023/06/16 08:08:38;;;;;;;4.50;1.60;;;16.60;99.90;;;;;;5079252;28;20200;-88
2023/06/16 08:11:09;;;;;;;4.65;1.50;;;16.50;99.90;;;;;;5063186;28;20212;-89
2023/06/16 08:13:40;;;;;;;2.95;1.70;;;16.50;99.90;;;;;;5079376;28;20205;-90
2023/06/16 08:16:13;;;;;;;4.45;1.75;;;16.50;99.90;;;;;;5095230;28;20286;-88
2023/06/16 08:18:44;;;;;;;3.65;1.90;;;16.50;99.90;;;;;;5083699;28;20244;-91
2023/06/16 08:21:17;;;;;;;5.13;2.08;;;16.40;99.90;;;;;;5064644;28;20205;-87
2023/06/16 08:23:48;;;;;;;5.80;2.72;;;16.40;99.90;;;;;;5064834;28;20663;-86
2023/06/16 08:26:21;;;;;;;7.05;3.88;;;16.40;99.90;;;;;;5064932;28;20199;-86
2023/06/16 08:28:54;;;;;;;5.35;3.38;;;16.40;99.90;;;;;;5097103;28;20230;-88
2023/06/16 08:31:25;;;;;;;6.00;2.92;;;16.40;99.90;;;;;;5091491;28;20804;-85
2023/06/16 08:33:58;;;;;;;4.72;2.13;;;16.30;99.90;;;;;;5077516;28;20192;-88
2023/06/16 08:36:34;;;;;;;3.83;2.00;;;16.30;99.90;;;;;;5081091;28;20203;-88
2023/06/16 08:39:07;;;;;;;7.53;2.13;;;16.30;99.90;;;;;;5078000;28;20692;-86
2023/06/16 08:41:39;;;;;;;4.43;2.20;;;16.30;99.90;;;;;;5081716;28;20199;-87
2023/06/16 08:44:13;;;;;;;6.07;2.10;;;16.30;99.90;;;;;;5089180;28;20211;-85
2023/06/16 08:46:45;;;;;;;4.40;2.15;;;16.30;99.90;;;;;;5070376;28;20199;-88
2023/06/16 08:49:18;;;;;;;4.30;2.10;;;16.30;99.90;;;;;;5074905;28;20192;-89
2023/06/16 08:51:53;;;;;;;4.90;1.92;;;16.20;99.90;;;;;;5069488;28;20254;-89
2023/06/16 08:54:31;;;;;;;4.38;1.88;;;16.20;99.90;;;;;;5064657;28;20195;-90
2023/06/16 08:57:06;;;;;;;4.43;3.03;;;16.20;99.90;;;;;;5071698;28;20276;-90
2023/06/16 08:59:38;;;;;;;6.25;2.60;;;16.20;99.90;;;;;;5070575;28;20198;-89
2023/06/16 09:02:11;;;;;;;5.20;2.10;;;16.20;99.90;;;;;;5074159;28;20181;-88
2023/06/16 09:04:42;;;;;;;4.38;3.00;;;16.20;99.90;;;;;;5070577;28;20254;-89
2023/06/16 09:07:19;;;;;;;7.68;2.83;;;16.20;99.90;;;;;;5046842;28;20204;-88
2023/06/16 09:09:52;;;;;;;6.22;3.60;;;16.20;99.90;;;;;;5071662;28;20270;-88
2023/06/16 09:12:24;;;;;;;7.07;3.80;;;16.20;99.90;;;;;;5077591;28;20235;-90
2023/06/16 09:14:57;;;;;;;9.38;5.03;;;16.10;99.90;;;;;;5076762;28;20264;-89
2023/06/16 09:17:30;;;;;;;8.00;6.55;;;16.10;99.90;;;;;;5077500;28;20188;-88
2023/06/16 09:20:06;;;;;;;6.53;4.40;;;16.10;99.90;;;;;;5085430;28;20277;-89
2023/06/16 09:22:45;;;;;;;6.93;4.00;;;16.00;99.90;;;;;;5081786;28;20192;-87
2023/06/16 09:25:18;;;;;;;12.07;7.07;;;16.00;99.90;;;;;;5060711;28;20227;-89
2023/06/16 09:27:50;;;;;;;7.43;4.90;;;16.00;99.90;;;;;;5063736;28;20286;-89
2023/06/16 09:30:29;;;;;;;4.40;3.30;;;16.00;99.90;;;;;;5080433;28;20198;-90
2023/06/16 09:33:03;;;;;;;5.80;3.45;;;16.00;99.90;;;;;;5084336;28;20203;-90
2023/06/16 09:35:36;;;;;;;4.10;2.90;;;15.90;99.90;;;;;;5079496;28;20552;-88
2023/06/16 09:38:13;;;;;;;5.47;2.83;;;15.90;99.90;;;;;;5077594;28;20215;-87
2023/06/16 09:40:46;;;;;;;5.72;3.40;;;15.90;99.90;;;;;;5080503;28;20192;-88
2023/06/16 09:43:17;;;;;;;5.95;3.40;;;15.90;99.90;;;;;;5076036;28;20278;-87
2023/06/16 09:46:00;;;;;;;4.97;3.10;;;15.80;99.90;;;;;;5075264;28;20238;-88
2023/06/16 09:48:37;;;;;;;5.20;3.05;;;15.80;99.90;;;;;;5075702;28;20563;-88
2023/06/16 09:51:12;;;;;;;5.60;2.78;;;15.80;99.90;;;;;;5075409;28;20226;-88
2023/06/16 09:53:48;;;;;;;5.68;2.58;;;15.80;99.90;;;;;;5076200;28;20274;-87
2023/06/16 09:56:20;;;;;;;4.38;2.40;;;15.70;99.90;;;;;;5060512;28;20227;-88
2023/06/16 09:58:52;;;;;;;5.47;2.50;;;15.70;99.90;;;;;;5055056;28;20200;-87
2023/06/16 10:01:24;;;;;;;4.75;2.40;;;15.70;99.90;;;;;;5057025;28;20203;-88
2023/06/16 10:03:56;;;;;;;3.80;2.15;;;15.70;99.90;;;;;;5074645;28;20196;-88
2023/06/16 10:06:31;;;;;;;4.00;2.38;;;15.70;99.90;;;;;;5083178;28;20259;-87
2023/06/16 10:09:06;;;;;;;4.05;2.10;;;15.70;99.90;;;;;;5062450;28;20200;-88
2023/06/16 10:11:38;;;;;;;3.97;2.40;;;15.70;99.90;;;;;;5072493;28;20778;-88
2023/06/16 10:14:12;;;;;;;3.95;2.40;;;15.70;99.90;;;;;;5076349;28;20198;-87
2023/06/16 10:16:45;;;;;;;7.32;3.00;;;15.70;99.90;;;;;;5076302;28;20203;-84
2023/06/16 10:19:17;;;;;;;6.45;3.58;;;15.60;99.90;;;;;;5074215;28;20204;-85
2023/06/16 10:21:49;;;;;;;4.63;2.97;;;15.60;99.90;;;;;;5074088;28;20196;-84
2023/06/16 10:24:23;;;;;;;5.85;3.45;;;15.60;99.90;;;;;;5089392;28;20194;-85
2023/06/16 10:26:56;;;;;;;6.03;3.63;;;15.60;99.90;;;;;;5072577;28;20240;-85
2023/06/16 10:29:28;;;;;;;5.68;2.90;;;15.60;99.90;;;;;;5083751;28;20287;-84
2023/06/16 10:32:11;;;;;;;6.95;3.47;;;15.50;99.90;;;;;;5082043;28;20235;-84
2023/06/16 10:34:51;;;;;;;5.38;3.30;;;15.50;99.90;;;;;;5089655;28;20653;-85
2023/06/16 10:37:26;;;;;;;5.18;2.90;;;15.40;99.90;;;;;;5087376;28;20207;-86
2023/06/16 10:40:08;;;;;;;6.53;3.90;;;15.40;99.90;;;;;;5081407;28;20199;-85
2023/06/16 10:42:45;;;;;;;5.18;3.00;;;15.40;99.90;;;;;;5074328;28;20207;-85
2023/06/16 10:45:31;;;;;;;4.10;2.50;;;15.40;99.90;;;;;;5072836;28;20228;-84
2023/06/16 10:48:10;;;;;;;4.05;2.45;;;15.40;99.90;;;;;;5073789;28;20289;-85
2023/06/16 10:50:45;;;;;;;5.25;2.85;;;15.40;99.90;;;;;;5058589;28;20192;-85
2023/06/16 10:53:17;;;;;;;5.72;3.13;;;15.40;99.90;;;;;;5075471;28;20225;-85
2023/06/16 10:56:08;;;;;;;8.32;3.60;;;15.40;99.90;;;;;;5076651;28;20224;-85
2023/06/16 10:58:39;;;;;;;4.53;2.80;;;15.30;99.90;;;;;;5054138;28;20199;-85
2023/06/16 11:01:27;;;;;;;5.90;3.22;;;15.30;99.90;;;;;;5062318;28;20200;-84
2023/06/16 11:04:09;;;;;;;3.85;2.83;;;15.30;99.90;;;;;;5074473;28;20200;-86
2023/06/16 11:07:11;;;;;;;5.78;2.75;;;15.30;99.90;;;;;;5074226;28;20714;-85
2023/06/16 11:09:42;;;;;;;5.53;3.03;;;15.30;99.90;;;;;;5070927;28;20195;-83
2023/06/16 11:12:19;;;;;;;4.65;2.42;;;15.20;99.90;;;;;;5068573;28;20782;-83
2023/06/16 11:14:51;;;;;;;4.20;2.30;;;15.20;99.90;;;;;;5064238;28;20658;-82
2023/06/16 11:17:22;;;;;;;3.97;2.63;;;15.20;99.90;;;;;;5086424;28;20200;-83
2023/06/16 11:19:57;;;;;;;3.65;2.55;;;15.20;99.90;;;;;;5073528;28;20188;-84
2023/06/16 11:22:36;;;;;;;3.92;2.35;;;15.10;99.90;;;;;;5077123;28;20195;-84
2023/06/16 11:25:10;;;;;;;7.85;3.35;;;15.10;99.90;;;;;;5084966;28;20214;-83
2023/06/16 11:27:43;;;;;;;5.82;2.83;;;15.00;99.90;;;;;;5088603;28;20208;-84
2023/06/16 11:30:15;;;;;;;4.28;3.03;;;15.00;99.90;;;;;;5082036;28;20279;-83
2023/06/16 11:32:46;;;;;;;4.97;2.80;;;15.00;99.90;;;;;;5072149;28;20666;-83
2023/06/16 11:35:17;;;;;;;4.95;2.70;;;14.90;99.90;;;;;;5091638;28;20566;-83
2023/06/16 11:37:51;;;;;;;4.93;2.90;;;14.80;99.90;;;;;;5077122;28;20279;-83
2023/06/16 11:40:23;;;;;;;6.57;3.28;;;14.80;99.90;;;;;;5087692;28;20559;-82
2023/06/16 11:43:01;;;;;;;6.47;3.20;;;14.80;99.90;;;;;;5074037;28;20206;-82
2023/06/16 11:45:35;;;;;;;5.85;3.30;;;14.80;99.90;;;;;;5075959;28;20239;-84
2023/06/16 11:48:08;;;;;;;4.97;3.17;;;14.80;99.90;;;;;;5071949;28;20195;-84
2023/06/16 11:50:41;;;;;;;5.82;3.22;;;14.90;99.90;;;;;;5058311;28;20655;-83
2023/06/16 11:53:19;;;;;;;4.60;2.92;;;14.80;99.90;;;;;;5073101;28;20200;-84
2023/06/16 11:55:53;;;;;;;8.05;3.50;;;14.80;99.90;;;;;;5057379;28;20216;-83
2023/06/16 11:58:28;;;;;;;6.68;3.28;;;14.80;99.90;;;;;;5092102;28;20195;-83
2023/06/16 12:01:01;;;;;;;6.20;3.83;;;14.80;99.90;;;;;;5081903;28;20195;-82
2023/06/16 12:03:33;;;;;;;6.25;4.03;;;14.80;99.90;;;;;;5097096;28;20216;-82
2023/06/16 12:06:06;;;;;;;5.95;3.67;;;14.80;99.90;;;;;;5081690;28;20555;-83
2023/06/16 12:08:43;;;;;;;9.60;3.92;;;14.70;99.90;;;;;;5096756;28;20637;-82
2023/06/16 12:11:21;;;;;;;5.25;3.22;;;14.70;99.90;;;;;;5096829;28;20277;-82
2023/06/16 12:13:55;;;;;;;4.70;3.17;;;14.70;99.90;;;;;;5076153;28;20295;-83
2023/06/16 12:16:28;;;;;;;6.32;3.50;;;14.70;99.90;;;;;;5078425;28;20194;-84
2023/06/16 12:19:01;;;;;;;3.97;3.03;;;14.60;99.90;;;;;;5083280;28;20203;-83
2023/06/16 12:21:32;;;;;;;5.63;2.95;;;14.60;99.90;;;;;;5086640;28;20247;-83
2023/06/16 12:24:07;;;;;;;4.75;3.35;;;14.60;99.90;;;;;;5093710;28;20196;-82
2023/06/16 12:26:44;;;;;;;6.90;3.10;;;14.60;99.90;;;;;;5091896;28;20230;-83
2023/06/16 12:29:21;;;;;;;3.95;3.00;;;14.60;99.90;;;;;;5070142;28;20199;-84
2023/06/16 12:31:56;;;;;;;7.20;3.58;;;14.50;99.90;;;;;;5085105;28;20191;-82
2023/06/16 12:34:30;;;;;;;5.07;3.40;;;14.50;99.90;;;;;;5093768;28;20572;-84
2023/06/16 12:37:06;;;;;;;4.68;3.20;;;14.50;99.90;;;;;;5090894;28;20196;-81
2023/06/16 12:39:57;;;;;;;4.82;3.25;;;14.50;99.90;;;;;;5084001;28;20195;-85
2023/06/16 12:42:29;;;;;;;4.93;3.30;;;14.40;99.90;;;;;;5082759;28;20216;-81
2023/06/16 12:45:03;;;;;;;4.93;3.45;;;14.40;99.90;;;;;;5077115;28;20754;-83
2023/06/16 12:47:35;;;;;;;6.55;4.20;;;14.30;99.90;;;;;;5081392;28;20191;-83
2023/06/16 12:50:08;;;;;;;9.77;4.57;;;14.30;99.90;;;;;;5084804;28;20223;-82
2023/06/16 12:52:40;;;;;;;6.57;4.18;;;14.30;99.90;;;;;;5077548;28;20214;-85
2023/06/16 12:55:12;;;;;;;7.85;4.40;;;14.30;99.90;;;;;;5080959;28;20566;-85
2023/06/16 12:57:44;;;;;;;5.93;4.00;;;14.30;99.90;;;;;;5058267;28;20280;-83
2023/06/16 13:00:19;;;;;;;6.20;3.95;;;14.30;99.90;;;;;;5094635;28;20317;-85
2023/06/16 13:02:53;;;;;;;6.88;3.75;;;14.30;99.90;;;;;;5077455;28;20693;-84
2023/06/16 13:05:25;;;;;;;5.72;3.17;;;14.30;99.90;;;;;;5078147;28;20223;-83
2023/06/16 13:07:57;;;;;;;5.90;2.90;;;14.30;99.90;;;;;;5078124;28;20568;-83
2023/06/16 13:10:30;;;;;;;5.85;2.97;;;14.30;99.90;;;;;;5076301;28;20286;-85
2023/06/16 13:13:02;;;;;;;5.57;3.00;;;14.30;99.90;;;;;;5084049;28;20237;-84
2023/06/16 13:15:38;;;;;;;4.47;2.78;;;14.30;99.90;;;;;;5079468;28;20604;-84
2023/06/16 13:18:09;;;;;;;6.07;3.38;;;14.30;99.90;;;;;;5078361;28;20227;-84
2023/06/16 13:20:42;;;;;;;5.13;3.00;;;14.30;99.90;;;;;;5090393;28;20635;-83
2023/06/16 13:23:15;;;;;;;4.80;3.40;;;14.20;99.90;;;;;;5088190;28;20773;-86
2023/06/16 13:25:55;;;;;;;4.47;3.15;;;14.10;99.90;;;;;;5071790;28;20219;-88
2023/06/16 13:28:48;;;;;;;7.43;3.20;;;14.00;99.90;;;;;;5088219;28;20196;-85
2023/06/16 13:31:31;;;;;;;4.47;3.00;;;14.00;99.90;;;;;;5094659;28;20242;-85